ADDS METAR Data INFO
IDs: Format: Raw Decoded Include TAF

Data at: 1246 UTC 19 Oct 2017

KTOP 191153Z 00000KT 5SM BR CLR 09/09 A3008 RMK AO2 SLP182 T00890089 10117 20083 53004
KTOP 191053Z AUTO 00000KT 3SM BR SCT002 09/09 A3007 RMK AO2 SLP181 T00890089
KTOP 191050Z AUTO 00000KT 2SM BR SCT002 09/09 A3007 RMK AO2
KTOP 191043Z AUTO 00000KT 3/4SM BR VV002 09/09 A3007 RMK AO2 T00890089
KTOP 191029Z AUTO 00000KT 1SM BR VV002 09/09 A3007 RMK AO2 VIS 1/2V5 T00890089
KTOP 191025Z AUTO 00000KT 2 1/2SM BR FEW002 09/09 A3007 RMK AO2 T00940089
KTOP 190953Z AUTO 00000KT 10SM CLR 09/09 A3007 RMK AO2 SLP177 T00940089
KTOP 190853Z AUTO 00000KT 10SM CLR 10/09 A3006 RMK AO2 SLP176 T01000094 51007
KTOP 190753Z AUTO 00000KT 10SM CLR 11/10 A3006 RMK AO2 SLP176 T01060100
KTOP 190653Z AUTO 00000KT 10SM CLR 12/11 A3005 RMK AO2 SLP172 T01170111
KTOP 190553Z AUTO 00000KT 10SM CLR 11/11 A3004 RMK AO2 SLP170 T01060106 10200 20106 402560106 53003
KTOP 190453Z AUTO 00000KT 10SM CLR 12/12 A3004 RMK AO2 SLP169 T01170117
KTOP 190353Z AUTO 00000KT 10SM CLR 12/10 A3003 RMK AO2 SLP168 T01170100
KTOP 190253Z AUTO 00000KT 10SM CLR 13/12 A3003 RMK AO2 SLP168 T01330117 51016
KTOP 190153Z AUTO 00000KT 10SM CLR 15/11 A3002 RMK AO2 SLP165 T01500111
KTOP 190053Z AUTO 00000KT 10SM CLR 17/11 A3001 RMK AO2 SLP160 T01720106
KTOP 182353Z 16006KT 10SM CLR 19/11 A2999 RMK AO2 SLP151 T01940106 10256 20194 53007
KTOP 182253Z 18009KT 10SM CLR 24/10 A2997 RMK AO2 SLP143 T02440100
KTOP 182153Z 18009KT 10SM CLR 25/10 A2996 RMK AO2 SLP142 T02500100
KTOP 182053Z 18008KT 10SM CLR 24/09 A2996 RMK AO2 SLP141 T02440094 55014
KTOP 181953Z 18011G19KT 10SM CLR 24/09 A2996 RMK AO2 SLP142 T02390094
KTOP 181853Z 21009KT 10SM CLR 22/09 A2998 RMK AO2 SLP149 T02220089
KTOP 181753Z 22012G19KT 10SM CLR 22/09 A3000 RMK AO2 SLP156 T02170089 10217 20122 56009
KTOP 181653Z 21014KT 10SM CLR 20/08 A3000 RMK AO2 SLP156 T02000083
KTOP 181553Z 19015KT 10SM CLR 18/08 A3002 RMK AO2 SLP162 T01830078
KTOP 181453Z 20010G17KT 10SM CLR 16/08 A3003 RMK AO2 SLP167 T01610078 50006
KTOP 181353Z 21007KT 10SM CLR 14/07 A3004 RMK AO2 SLP171 T01390072
KTOP 181253Z 19006KT 10SM CLR 12/07 A3002 RMK AO2 SLP164 T01220072
KTOP 181153Z 18009KT 10SM CLR 12/08 A3002 RMK AO2 SLP161 T01220078 10144 20122 56005
KTOP 181053Z AUTO 18010G17KT 10SM CLR 13/08 A3002 RMK AO2 SLP161 T01280078
KTOP 180953Z AUTO 19010KT 10SM CLR 13/08 A3002 RMK AO2 SLP162 T01280078
KTOP 180853Z AUTO 19009KT 10SM CLR 13/08 A3003 RMK AO2 SLP165 T01280083 58011
KTOP 180753Z AUTO 20007KT 10SM CLR 13/08 A3005 RMK AO2 SLP172 T01280083
KTOP 180653Z AUTO 18005KT 10SM CLR 13/08 A3006 RMK AO2 SLP174 T01330083
KTOP 180553Z AUTO 19007KT 10SM CLR 14/08 A3006 RMK AO2 SLP176 T01440083 10200 20144 402390083 58004
KTOP 180453Z AUTO 19009KT 10SM CLR 14/09 A3007 RMK AO2 SLP178 T01440089
KTOP 180353Z AUTO 19007KT 10SM CLR 15/09 A3007 RMK AO2 SLP180 T01500089
KTOP 180253Z AUTO 18007KT 10SM CLR 16/09 A3008 RMK AO2 SLP181 T01560094 51009
KTOP 180153Z AUTO 18005KT 10SM CLR 16/09 A3007 RMK AO2 SLP180 T01610094
KTOP 180053Z AUTO 16005KT 10SM CLR 17/09 A3006 RMK AO2 SLP178 T01670094